Tim Quigg — WDB6570 — position and weather

sailwx.info

Track history (hours):
 
Tides and Currents Weather Stations Pressure Air Temp Water Temp Dewpoint Dewpoint Depression Visibility Wind Speed Wind Dir Waves Ship Positions

Tim Quigg

Owner: Harley Marine Services, Inc, Seattle, WA. More information available from US FCC via Universal Licensing System and Coast Guard Vessel Documentation Center.

Last reported at 2016-Aug-27 17:27 UTC. Time now 2016-Aug-28 00:30 UTC.
Position N 33°44' W 118°16'.

Type: Tug. MMSI: 366926740.

Date/timePositionNaut miles runAvg speedWind from/ knotsBaromVisibWave heightAir tempDewpointWater temp
2016-Aug-27 17:27N 33°44' W 118°16'1 0.6
2016-Aug-27 16:24N 33°44' W 118°16'1 0.6
2016-Aug-27 15:22N 33°44' W 118°16'4 4.4
2016-Aug-27 14:28N 33°45' W 118°11'2 1.9
2016-Aug-27 13:21N 33°46' W 118°13'3 2.5
2016-Aug-27 12:16N 33°44' W 118°12'1 0.4
2016-Aug-27 09:11N 33°44' W 118°13'1 0.2
2016-Aug-27 01:31N 33°45' W 118°12'3 1.1
2016-Aug-26 22:34N 33°46' W 118°16'2 1.6
2016-Aug-26 21:12N 33°44' W 118°16'0 0.0
2016-Aug-26 18:21N 33°44' W 118°16'0 0.0
2016-Aug-26 17:33N 33°44' W 118°16'0 0.0
2016-Aug-26 14:17N 33°44' W 118°16'2 2.4
2016-Aug-26 13:34N 33°45' W 118°17'0 0.1
2016-Aug-26 12:33N 33°45' W 118°17'3 2.9
2016-Aug-26 11:33N 33°45' W 118°13'2 1.8
2016-Aug-26 10:33N 33°46' W 118°13'4 3.2
2016-Aug-26 09:27N 33°44' W 118°16'0 0.0
2016-Aug-26 08:33N 33°44' W 118°16'0 0.0
2016-Aug-26 07:32N 33°44' W 118°16'0 0.0
2016-Aug-26 06:29N 33°44' W 118°16'0 0.0
2016-Aug-26 04:33N 33°44' W 118°16'0 0.0
2016-Aug-26 03:34N 33°44' W 118°16'0 0.0
2016-Aug-26 02:33N 33°44' W 118°16'0 0.0
2016-Aug-26 01:33N 33°44' W 118°16'0 0.0
2016-Aug-26 00:30N 33°44' W 118°16'0 0.0
2016-Aug-25 23:33N 33°44' W 118°16'0 0.0
2016-Aug-25 21:33N 33°44' W 118°16'0 0.0
2016-Aug-25 17:33N 33°44' W 118°16'0 0.3
2016-Aug-25 16:32N 33°44' W 118°16'7 6.4
2016-Aug-25 15:29N 33°44' W 118°08'2 1.8
2016-Aug-25 14:29N 33°44' W 118°05'5 5.3
2016-Aug-25 13:28N 33°44' W 118°12'1 0.7
2016-Aug-25 12:28N 33°45' W 118°12'0 0.0
2016-Aug-25 11:33N 33°45' W 118°12'2 1.5
2016-Aug-25 10:30N 33°45' W 118°14'0 0.0
2016-Aug-25 09:33N 33°45' W 118°14'0 0.0
2016-Aug-25 08:32N 33°45' W 118°14'2 2.1
2016-Aug-25 07:33N 33°44' W 118°16'0 0.0
2016-Aug-25 06:32N 33°44' W 118°16'0 0.0
2016-Aug-25 04:33N 33°44' W 118°16'0 0.0
2016-Aug-25 03:33N 33°44' W 118°16'1 1.5
2016-Aug-25 02:33N 33°43' W 118°14'3 2.7
2016-Aug-25 01:33N 33°45' W 118°12'1 0.9
2016-Aug-25 00:33N 33°45' W 118°13'0 0.0
2016-Aug-24 23:33N 33°45' W 118°13'0 0.0
2016-Aug-24 22:33N 33°45' W 118°13'1 0.9
2016-Aug-24 21:34N 33°45' W 118°14'2 2.1
2016-Aug-24 20:34N 33°43' W 118°14'2 1.7
2016-Aug-24 19:33N 33°44' W 118°16'0 0.0
2016-Aug-24 18:15N 33°44' W 118°16'0 0.0
2016-Aug-24 17:33N 33°44' W 118°16'2 1.5
2016-Aug-24 16:33N 33°43' W 118°14'1 0.6
2016-Aug-24 15:33N 33°44' W 118°14'3 2.7
2016-Aug-24 14:33N 33°46' W 118°16'2 2.0
2016-Aug-24 13:33N 33°44' W 118°16'2 1.7
2016-Aug-24 12:33N 33°45' W 118°16'3 2.8
2016-Aug-24 11:33N 33°44' W 118°13'3 3.1
2016-Aug-24 10:34N 33°46' W 118°16'2 2.0
2016-Aug-24 09:33N 33°44' W 118°16'0 0.0
2016-Aug-24 08:33N 33°44' W 118°16'0 0.0
2016-Aug-24 07:33N 33°44' W 118°16'0 0.0
2016-Aug-24 06:33N 33°44' W 118°16'0 0.0
2016-Aug-24 04:33N 33°44' W 118°16'1 0.9
2016-Aug-24 03:33N 33°44' W 118°17'1 0.8
2016-Aug-24 02:32N 33°44' W 118°16'1 0.6
2016-Aug-24 01:33N 33°43' W 118°16'2 1.9
2016-Aug-24 00:34N 33°45' W 118°16'2 1.5
2016-Aug-23 23:34N 33°46' W 118°14'1 1.3
2016-Aug-23 22:33N 33°45' W 118°13'2 1.8
2016-Aug-23 21:33N 33°43' W 118°13'2 2.4
2016-Aug-23 20:33N 33°44' W 118°16'0 0.0
2016-Aug-23 19:32N 33°44' W 118°16'0 0.0
2016-Aug-23 18:33N 33°44' W 118°16'2 2.4
2016-Aug-23 17:33N 33°45' W 118°13'0 0.3
2016-Aug-23 16:33N 33°44' W 118°13'3 2.5
2016-Aug-23 15:33N 33°46' W 118°16'0 0.0
2016-Aug-23 14:07N 33°46' W 118°16'1 1.0
2016-Aug-23 13:33N 33°46' W 118°15'2 2.0
2016-Aug-23 12:33N 33°45' W 118°13'1 1.1
2016-Aug-23 11:32N 33°46' W 118°13'1 0.9
2016-Aug-23 10:33N 33°46' W 118°14'1 0.8
2016-Aug-23 09:33N 33°46' W 118°13'1 1.1
2016-Aug-23 08:33N 33°45' W 118°13'3 2.9
2016-Aug-23 07:32N 33°43' W 118°15'1 0.9
2016-Aug-23 06:34N 33°44' W 118°16'2 2.0
2016-Aug-23 05:34N 33°44' W 118°13'3 2.9
2016-Aug-23 04:33N 33°46' W 118°16'2 2.4
2016-Aug-23 03:33N 33°45' W 118°13'0 0.0
2016-Aug-23 02:33N 33°45' W 118°13'0 0.0
2016-Aug-23 01:34N 33°45' W 118°13'0 0.0
2016-Aug-23 00:33N 33°45' W 118°13'2 1.6
2016-Aug-22 23:33N 33°46' W 118°14'2 2.3
2016-Aug-22 22:33N 33°44' W 118°16'2 2.1
2016-Aug-22 21:33N 33°46' W 118°16'2 2.0
2016-Aug-22 20:33N 33°44' W 118°16'0 0.0
2016-Aug-22 19:33N 33°44' W 118°16'0 0.0
2016-Aug-22 18:31N 33°44' W 118°16'2 1.7
2016-Aug-22 17:33N 33°43' W 118°14'7 7.1
2016-Aug-22 16:33N 33°44' W 118°05'1 0.7
2016-Aug-22 15:33N 33°44' W 118°06'4 4.0
2016-Aug-22 14:34N 33°45' W 118°11'4 4.4
2016-Aug-22 13:34N 33°43' W 118°15'0 0.5
2016-Aug-22 12:33N 33°43' W 118°16'3 3.5
2016-Aug-22 11:33N 33°45' W 118°12'1 1.4
2016-Aug-22 10:33N 33°43' W 118°11'4 3.9
2016-Aug-22 09:33N 33°44' W 118°16'0 0.0
2016-Aug-22 08:31N 33°44' W 118°16'0 0.0
2016-Aug-22 07:34N 33°44' W 118°16'0 0.0
2016-Aug-22 06:34N 33°44' W 118°16'0 0.1
2016-Aug-22 05:34N 33°44' W 118°16'0 0.0
2016-Aug-22 04:34N 33°44' W 118°16'3 2.8
2016-Aug-22 03:34N 33°45' W 118°13'3 2.8
2016-Aug-22 02:34N 33°44' W 118°16'1 0.8
2016-Aug-22 01:34N 33°43' W 118°16'1 0.8
2016-Aug-22 00:34N 33°44' W 118°16'1 1.5
2016-Aug-21 23:34N 33°45' W 118°16'1 1.5
2016-Aug-21 22:33N 33°44' W 118°17'1 0.7
2016-Aug-21 21:34N 33°44' W 118°16'0 0.0
2016-Aug-21 20:33N 33°44' W 118°16'0 0.0
2016-Aug-21 19:34N 33°44' W 118°16'0 0.0
2016-Aug-21 18:34N 33°44' W 118°16'0 0.0
2016-Aug-21 17:34N 33°44' W 118°16'1 1.0
2016-Aug-21 16:34N 33°45' W 118°17'1 0.7
2016-Aug-21 15:32N 33°45' W 118°16'0 0.0
2016-Aug-21 14:34N 33°45' W 118°16'3 2.8
2016-Aug-21 13:33N 33°46' W 118°13'2 1.7
2016-Aug-21 12:33N 33°45' W 118°13'3 3.0
2016-Aug-21 11:33N 33°44' W 118°17'0 0.3
2016-Aug-21 10:34N 33°45' W 118°17'1 1.0
2016-Aug-21 09:33N 33°44' W 118°16'0 0.0
2016-Aug-21 08:34N 33°44' W 118°16'0 0.0
2016-Aug-21 07:33N 33°44' W 118°16'0 0.0
2016-Aug-21 06:34N 33°44' W 118°16'0 0.0
2016-Aug-21 05:34N 33°44' W 118°16'4 3.7
2016-Aug-21 04:33N 33°44' W 118°11'0 0.4
2016-Aug-21 03:33N 33°44' W 118°12'4 3.9
2016-Aug-21 02:33N 33°45' W 118°16'0 0.4
2016-Aug-21 01:34N 33°45' W 118°16'0 0.0
2016-Aug-21 00:33N 33°45' W 118°16'0 0.0
2016-Aug-20 23:34N 33°45' W 118°16'0 0.2
2016-Aug-20 22:33N 33°45' W 118°16'1 1.3
2016-Aug-20 21:33N 33°44' W 118°16'0 0.0
2016-Aug-20 20:34N 33°44' W 118°16'0 0.0
2016-Aug-20 19:34N 33°44' W 118°16'2 2.0
2016-Aug-20 18:30N 33°45' W 118°13'2 2.0
2016-Aug-20 17:34N 33°43' W 118°14'3 3.0
2016-Aug-20 16:33N 33°46' W 118°16'0 0.2
2016-Aug-20 15:33N 33°46' W 118°16'0 0.0
2016-Aug-20 14:34N 33°46' W 118°16'0 0.0
2016-Aug-20 13:34N 33°46' W 118°16'2 1.9
2016-Aug-20 12:33N 33°44' W 118°16'1 1.2
2016-Aug-20 11:32N 33°45' W 118°16'1 1.0
2016-Aug-20 10:33N 33°46' W 118°17'2 0.4
2016-Aug-20 04:25N 33°44' W 118°16'2 2.2
2016-Aug-20 03:33N 33°46' W 118°16'2 1.7
2016-Aug-20 02:34N 33°44' W 118°16'0 0.0
2016-Aug-20 01:33N 33°44' W 118°16'0 0.1
2016-Aug-20 00:33N 33°44' W 118°16'0 0.0
2016-Aug-19 23:33N 33°44' W 118°16'0 0.2
2016-Aug-19 22:34N 33°44' W 118°15'1 1.3
2016-Aug-19 21:33N 33°43' W 118°15'1 1.3
2016-Aug-19 20:33N 33°44' W 118°16'0 0.0
2016-Aug-19 19:32N 33°44' W 118°16'0 0.0
2016-Aug-19 18:33N 33°44' W 118°16'0 0.0
2016-Aug-19 17:33N 33°44' W 118°16'2 2.0
2016-Aug-19 16:30N 33°46' W 118°15'0 0.0
2016-Aug-19 14:29N 33°46' W 118°15'1 0.6
2016-Aug-19 13:33N 33°46' W 118°15'2 2.2
2016-Aug-19 12:33N 33°45' W 118°13'2 2.3
2016-Aug-19 11:33N 33°43' W 118°15'1 1.3
2016-Aug-19 10:34N 33°44' W 118°16'0 0.0
2016-Aug-19 09:34N 33°44' W 118°16'0 0.0
2016-Aug-19 08:33N 33°44' W 118°16'0 0.0
2016-Aug-19 07:34N 33°44' W 118°16'0 0.0
2016-Aug-19 06:33N 33°44' W 118°16'0 0.0
2016-Aug-19 05:33N 33°44' W 118°16'0 0.0
2016-Aug-19 04:25N 33°44' W 118°16'0 0.0
2016-Aug-19 03:32N 33°44' W 118°16'2 1.9
2016-Aug-19 02:33N 33°46' W 118°16'2 2.0
2016-Aug-19 01:33N 33°44' W 118°16'0 0.0
2016-Aug-19 00:33N 33°44' W 118°16'0 0.0
2016-Aug-18 23:33N 33°44' W 118°16'0 0.5
2016-Aug-18 22:33N 33°44' W 118°15'0 0.5
2016-Aug-18 21:33N 33°44' W 118°16'0 0.4
2016-Aug-18 20:33N 33°44' W 118°16'1 0.5
2016-Aug-18 19:33N 33°44' W 118°16'0 0.0
2016-Aug-18 18:33N 33°44' W 118°16'0 0.0
2016-Aug-18 17:33N 33°44' W 118°16'1 0.5
2016-Aug-18 16:28N 33°43' W 118°16'0 0.4
2016-Aug-18 15:27N 33°44' W 118°16'1 0.7
2016-Aug-18 14:33N 33°43' W 118°16'1 0.6
2016-Aug-18 13:33N 33°44' W 118°16'1 1.3
2016-Aug-18 12:33N 33°45' W 118°16'1 1.1
2016-Aug-18 11:33N 33°44' W 118°17'1 0.7
2016-Aug-18 10:34N 33°44' W 118°16'0 0.0
2016-Aug-18 09:33N 33°44' W 118°16'0 0.0
2016-Aug-18 08:34N 33°44' W 118°16'0 0.0
2016-Aug-18 07:33N 33°44' W 118°16'0 0.0
2016-Aug-18 06:33N 33°44' W 118°16'0 0.0
2016-Aug-18 05:34N 33°44' W 118°16'3 2.8
2016-Aug-18 04:33N 33°45' W 118°12'1 0.9
2016-Aug-18 03:31N 33°44' W 118°13'2 2.4
2016-Aug-18 02:30N 33°45' W 118°16'1 1.1
2016-Aug-18 01:33N 33°46' W 118°16'1 1.1
2016-Aug-18 00:34N 33°45' W 118°16'3 2.6
2016-Aug-17 23:33N 33°44' W 118°13'1 0.9
2016-Aug-17 22:33N 33°45' W 118°13'1 0.7
2016-Aug-17 21:33N 33°45' W 118°14'2 2.0
2016-Aug-17 20:33N 33°44' W 118°16'0 0.1
2016-Aug-17 19:34N 33°44' W 118°16'0 0.0
2016-Aug-17 18:33N 33°44' W 118°16'0 0.0
2016-Aug-17 17:34N 33°44' W 118°16'  
Track history (hours):
 
Tides and Currents Weather Stations Pressure Air Temp Water Temp Dewpoint Dewpoint Depression Visibility Wind Speed Wind Dir Waves Ship Positions

Tim Quigg

Owner: Harley Marine Services, Inc, Seattle, WA. More information available from US FCC via Universal Licensing System and Coast Guard Vessel Documentation Center.

Last reported at 2016-Aug-27 17:27 UTC. Time now 2016-Aug-28 00:30 UTC.
Position N 33°44' W 118°16'.

Type: Tug. MMSI: 366926740.

Date/timePositionNaut miles runAvg speedWind from/ knotsBaromVisibWave heightAir tempDewpointWater temp
2016-Aug-27 17:27N 33°44' W 118°16'1 0.6
2016-Aug-27 16:24N 33°44' W 118°16'1 0.6
2016-Aug-27 15:22N 33°44' W 118°16'4 4.4
2016-Aug-27 14:28N 33°45' W 118°11'2 1.9
2016-Aug-27 13:21N 33°46' W 118°13'3 2.5
2016-Aug-27 12:16N 33°44' W 118°12'1 0.4
2016-Aug-27 09:11N 33°44' W 118°13'1 0.2
2016-Aug-27 01:31N 33°45' W 118°12'3 1.1
2016-Aug-26 22:34N 33°46' W 118°16'2 1.6
2016-Aug-26 21:12N 33°44' W 118°16'0 0.0
2016-Aug-26 18:21N 33°44' W 118°16'0 0.0
2016-Aug-26 17:33N 33°44' W 118°16'0 0.0
2016-Aug-26 14:17N 33°44' W 118°16'2 2.4
2016-Aug-26 13:34N 33°45' W 118°17'0 0.1
2016-Aug-26 12:33N 33°45' W 118°17'3 2.9
2016-Aug-26 11:33N 33°45' W 118°13'2 1.8
2016-Aug-26 10:33N 33°46' W 118°13'4 3.2
2016-Aug-26 09:27N 33°44' W 118°16'0 0.0
2016-Aug-26 08:33N 33°44' W 118°16'0 0.0
2016-Aug-26 07:32N 33°44' W 118°16'0 0.0
2016-Aug-26 06:29N 33°44' W 118°16'0 0.0
2016-Aug-26 04:33N 33°44' W 118°16'0 0.0
2016-Aug-26 03:34N 33°44' W 118°16'0 0.0
2016-Aug-26 02:33N 33°44' W 118°16'0 0.0
2016-Aug-26 01:33N 33°44' W 118°16'0 0.0
2016-Aug-26 00:30N 33°44' W 118°16'0 0.0
2016-Aug-25 23:33N 33°44' W 118°16'0 0.0
2016-Aug-25 21:33N 33°44' W 118°16'0 0.0
2016-Aug-25 17:33N 33°44' W 118°16'0 0.3
2016-Aug-25 16:32N 33°44' W 118°16'7 6.4
2016-Aug-25 15:29N 33°44' W 118°08'2 1.8
2016-Aug-25 14:29N 33°44' W 118°05'5 5.3
2016-Aug-25 13:28N 33°44' W 118°12'1 0.7
2016-Aug-25 12:28N 33°45' W 118°12'0 0.0
2016-Aug-25 11:33N 33°45' W 118°12'2 1.5
2016-Aug-25 10:30N 33°45' W 118°14'0 0.0
2016-Aug-25 09:33N 33°45' W 118°14'0 0.0
2016-Aug-25 08:32N 33°45' W 118°14'2 2.1
2016-Aug-25 07:33N 33°44' W 118°16'0 0.0
2016-Aug-25 06:32N 33°44' W 118°16'0 0.0
2016-Aug-25 04:33N 33°44' W 118°16'0 0.0
2016-Aug-25 03:33N 33°44' W 118°16'1 1.5
2016-Aug-25 02:33N 33°43' W 118°14'3 2.7
2016-Aug-25 01:33N 33°45' W 118°12'1 0.9
2016-Aug-25 00:33N 33°45' W 118°13'0 0.0
2016-Aug-24 23:33N 33°45' W 118°13'0 0.0
2016-Aug-24 22:33N 33°45' W 118°13'1 0.9
2016-Aug-24 21:34N 33°45' W 118°14'2 2.1
2016-Aug-24 20:34N 33°43' W 118°14'2 1.7
2016-Aug-24 19:33N 33°44' W 118°16'0 0.0
2016-Aug-24 18:15N 33°44' W 118°16'0 0.0
2016-Aug-24 17:33N 33°44' W 118°16'2 1.5
2016-Aug-24 16:33N 33°43' W 118°14'1 0.6
2016-Aug-24 15:33N 33°44' W 118°14'3 2.7
2016-Aug-24 14:33N 33°46' W 118°16'2 2.0
2016-Aug-24 13:33N 33°44' W 118°16'2 1.7
2016-Aug-24 12:33N 33°45' W 118°16'3 2.8
2016-Aug-24 11:33N 33°44' W 118°13'3 3.1
2016-Aug-24 10:34N 33°46' W 118°16'2 2.0
2016-Aug-24 09:33N 33°44' W 118°16'0 0.0
2016-Aug-24 08:33N 33°44' W 118°16'0 0.0
2016-Aug-24 07:33N 33°44' W 118°16'0 0.0
2016-Aug-24 06:33N 33°44' W 118°16'0 0.0
2016-Aug-24 04:33N 33°44' W 118°16'1 0.9
2016-Aug-24 03:33N 33°44' W 118°17'1 0.8
2016-Aug-24 02:32N 33°44' W 118°16'1 0.6
2016-Aug-24 01:33N 33°43' W 118°16'2 1.9
2016-Aug-24 00:34N 33°45' W 118°16'2 1.5
2016-Aug-23 23:34N 33°46' W 118°14'1 1.3
2016-Aug-23 22:33N 33°45' W 118°13'2 1.8
2016-Aug-23 21:33N 33°43' W 118°13'2 2.4
2016-Aug-23 20:33N 33°44' W 118°16'0 0.0
2016-Aug-23 19:32N 33°44' W 118°16'0 0.0
2016-Aug-23 18:33N 33°44' W 118°16'2 2.4
2016-Aug-23 17:33N 33°45' W 118°13'0 0.3
2016-Aug-23 16:33N 33°44' W 118°13'3 2.5
2016-Aug-23 15:33N 33°46' W 118°16'0 0.0
2016-Aug-23 14:07N 33°46' W 118°16'1 1.0
2016-Aug-23 13:33N 33°46' W 118°15'2 2.0
2016-Aug-23 12:33N 33°45' W 118°13'1 1.1
2016-Aug-23 11:32N 33°46' W 118°13'1 0.9
2016-Aug-23 10:33N 33°46' W 118°14'1 0.8
2016-Aug-23 09:33N 33°46' W 118°13'1 1.1
2016-Aug-23 08:33N 33°45' W 118°13'3 2.9
2016-Aug-23 07:32N 33°43' W 118°15'1 0.9
2016-Aug-23 06:34N 33°44' W 118°16'2 2.0
2016-Aug-23 05:34N 33°44' W 118°13'3 2.9
2016-Aug-23 04:33N 33°46' W 118°16'2 2.4
2016-Aug-23 03:33N 33°45' W 118°13'0 0.0
2016-Aug-23 02:33N 33°45' W 118°13'0 0.0
2016-Aug-23 01:34N 33°45' W 118°13'0 0.0
2016-Aug-23 00:33N 33°45' W 118°13'2 1.6
2016-Aug-22 23:33N 33°46' W 118°14'2 2.3
2016-Aug-22 22:33N 33°44' W 118°16'2 2.1
2016-Aug-22 21:33N 33°46' W 118°16'2 2.0
2016-Aug-22 20:33N 33°44' W 118°16'0 0.0
2016-Aug-22 19:33N 33°44' W 118°16'0 0.0
2016-Aug-22 18:31N 33°44' W 118°16'2 1.7
2016-Aug-22 17:33N 33°43' W 118°14'7 7.1
2016-Aug-22 16:33N 33°44' W 118°05'1 0.7
2016-Aug-22 15:33N 33°44' W 118°06'4 4.0
2016-Aug-22 14:34N 33°45' W 118°11'4 4.4
2016-Aug-22 13:34N 33°43' W 118°15'0 0.5
2016-Aug-22 12:33N 33°43' W 118°16'3 3.5
2016-Aug-22 11:33N 33°45' W 118°12'1 1.4
2016-Aug-22 10:33N 33°43' W 118°11'4 3.9
2016-Aug-22 09:33N 33°44' W 118°16'0 0.0
2016-Aug-22 08:31N 33°44' W 118°16'0 0.0
2016-Aug-22 07:34N 33°44' W 118°16'0 0.0
2016-Aug-22 06:34N 33°44' W 118°16'0 0.1
2016-Aug-22 05:34N 33°44' W 118°16'0 0.0
2016-Aug-22 04:34N 33°44' W 118°16'3 2.8
2016-Aug-22 03:34N 33°45' W 118°13'3 2.8
2016-Aug-22 02:34N 33°44' W 118°16'1 0.8
2016-Aug-22 01:34N 33°43' W 118°16'1 0.8
2016-Aug-22 00:34N 33°44' W 118°16'1 1.5
2016-Aug-21 23:34N 33°45' W 118°16'1 1.5
2016-Aug-21 22:33N 33°44' W 118°17'1 0.7
2016-Aug-21 21:34N 33°44' W 118°16'0 0.0
2016-Aug-21 20:33N 33°44' W 118°16'0 0.0
2016-Aug-21 19:34N 33°44' W 118°16'0 0.0
2016-Aug-21 18:34N 33°44' W 118°16'0 0.0
2016-Aug-21 17:34N 33°44' W 118°16'1 1.0
2016-Aug-21 16:34N 33°45' W 118°17'1 0.7
2016-Aug-21 15:32N 33°45' W 118°16'0 0.0
2016-Aug-21 14:34N 33°45' W 118°16'3 2.8
2016-Aug-21 13:33N 33°46' W 118°13'2 1.7
2016-Aug-21 12:33N 33°45' W 118°13'3 3.0
2016-Aug-21 11:33N 33°44' W 118°17'0 0.3
2016-Aug-21 10:34N 33°45' W 118°17'1 1.0
2016-Aug-21 09:33N 33°44' W 118°16'0 0.0
2016-Aug-21 08:34N 33°44' W 118°16'0 0.0
2016-Aug-21 07:33N 33°44' W 118°16'0 0.0
2016-Aug-21 06:34N 33°44' W 118°16'0 0.0
2016-Aug-21 05:34N 33°44' W 118°16'4 3.7
2016-Aug-21 04:33N 33°44' W 118°11'0 0.4
2016-Aug-21 03:33N 33°44' W 118°12'4 3.9
2016-Aug-21 02:33N 33°45' W 118°16'0 0.4
2016-Aug-21 01:34N 33°45' W 118°16'0 0.0
2016-Aug-21 00:33N 33°45' W 118°16'0 0.0
2016-Aug-20 23:34N 33°45' W 118°16'0 0.2
2016-Aug-20 22:33N 33°45' W 118°16'1 1.3
2016-Aug-20 21:33N 33°44' W 118°16'0 0.0
2016-Aug-20 20:34N 33°44' W 118°16'0 0.0
2016-Aug-20 19:34N 33°44' W 118°16'2 2.0
2016-Aug-20 18:30N 33°45' W 118°13'2 2.0
2016-Aug-20 17:34N 33°43' W 118°14'3 3.0
2016-Aug-20 16:33N 33°46' W 118°16'0 0.2
2016-Aug-20 15:33N 33°46' W 118°16'0 0.0
2016-Aug-20 14:34N 33°46' W 118°16'0 0.0
2016-Aug-20 13:34N 33°46' W 118°16'2 1.9
2016-Aug-20 12:33N 33°44' W 118°16'1 1.2
2016-Aug-20 11:32N 33°45' W 118°16'1 1.0
2016-Aug-20 10:33N 33°46' W 118°17'2 0.4
2016-Aug-20 04:25N 33°44' W 118°16'2 2.2
2016-Aug-20 03:33N 33°46' W 118°16'2 1.7
2016-Aug-20 02:34N 33°44' W 118°16'0 0.0
2016-Aug-20 01:33N 33°44' W 118°16'0 0.1
2016-Aug-20 00:33N 33°44' W 118°16'0 0.0
2016-Aug-19 23:33N 33°44' W 118°16'0 0.2
2016-Aug-19 22:34N 33°44' W 118°15'1 1.3
2016-Aug-19 21:33N 33°43' W 118°15'1 1.3
2016-Aug-19 20:33N 33°44' W 118°16'0 0.0
2016-Aug-19 19:32N 33°44' W 118°16'0 0.0
2016-Aug-19 18:33N 33°44' W 118°16'0 0.0
2016-Aug-19 17:33N 33°44' W 118°16'2 2.0
2016-Aug-19 16:30N 33°46' W 118°15'0 0.0
2016-Aug-19 14:29N 33°46' W 118°15'1 0.6
2016-Aug-19 13:33N 33°46' W 118°15'2 2.2
2016-Aug-19 12:33N 33°45' W 118°13'2 2.3
2016-Aug-19 11:33N 33°43' W 118°15'1 1.3
2016-Aug-19 10:34N 33°44' W 118°16'0 0.0
2016-Aug-19 09:34N 33°44' W 118°16'0 0.0
2016-Aug-19 08:33N 33°44' W 118°16'0 0.0
2016-Aug-19 07:34N 33°44' W 118°16'0 0.0
2016-Aug-19 06:33N 33°44' W 118°16'0 0.0
2016-Aug-19 05:33N 33°44' W 118°16'0 0.0
2016-Aug-19 04:25N 33°44' W 118°16'0 0.0
2016-Aug-19 03:32N 33°44' W 118°16'2 1.9
2016-Aug-19 02:33N 33°46' W 118°16'2 2.0
2016-Aug-19 01:33N 33°44' W 118°16'0 0.0
2016-Aug-19 00:33N 33°44' W 118°16'0 0.0
2016-Aug-18 23:33N 33°44' W 118°16'0 0.5
2016-Aug-18 22:33N 33°44' W 118°15'0 0.5
2016-Aug-18 21:33N 33°44' W 118°16'0 0.4
2016-Aug-18 20:33N 33°44' W 118°16'1 0.5
2016-Aug-18 19:33N 33°44' W 118°16'0 0.0
2016-Aug-18 18:33N 33°44' W 118°16'0 0.0
2016-Aug-18 17:33N 33°44' W 118°16'1 0.5
2016-Aug-18 16:28N 33°43' W 118°16'0 0.4
2016-Aug-18 15:27N 33°44' W 118°16'1 0.7
2016-Aug-18 14:33N 33°43' W 118°16'1 0.6
2016-Aug-18 13:33N 33°44' W 118°16'1 1.3
2016-Aug-18 12:33N 33°45' W 118°16'1 1.1
2016-Aug-18 11:33N 33°44' W 118°17'1 0.7
2016-Aug-18 10:34N 33°44' W 118°16'0 0.0
2016-Aug-18 09:33N 33°44' W 118°16'0 0.0
2016-Aug-18 08:34N 33°44' W 118°16'0 0.0
2016-Aug-18 07:33N 33°44' W 118°16'0 0.0
2016-Aug-18 06:33N 33°44' W 118°16'0 0.0
2016-Aug-18 05:34N 33°44' W 118°16'3 2.8
2016-Aug-18 04:33N 33°45' W 118°12'1 0.9
2016-Aug-18 03:31N 33°44' W 118°13'2 2.4
2016-Aug-18 02:30N 33°45' W 118°16'1 1.1
2016-Aug-18 01:33N 33°46' W 118°16'1 1.1
2016-Aug-18 00:34N 33°45' W 118°16'3 2.6
2016-Aug-17 23:33N 33°44' W 118°13'1 0.9
2016-Aug-17 22:33N 33°45' W 118°13'1 0.7
2016-Aug-17 21:33N 33°45' W 118°14'2 2.0
2016-Aug-17 20:33N 33°44' W 118°16'0 0.1
2016-Aug-17 19:34N 33°44' W 118°16'0 0.0
2016-Aug-17 18:33N 33°44' W 118°16'0 0.0
2016-Aug-17 17:34N 33°44' W 118°16'  

Dump ship's entire track history